createdAt,value
2022-11-09T00:02:05.461Z,100007.80
2022-11-09T00:04:36.231Z,100008.96
2022-11-09T00:07:07.000Z,100009.64
2022-11-09T00:09:39.182Z,100009.14
2022-11-09T00:12:10.845Z,100005.66
2022-11-09T00:14:41.506Z,100005.27
2022-11-09T00:17:12.215Z,100003.41
2022-11-09T00:19:42.842Z,100004.30
2022-11-09T00:22:13.619Z,100013.77
2022-11-09T00:24:44.249Z,100013.83
2022-11-09T00:27:17.586Z,100018.25
2022-11-09T00:29:48.704Z,100019.63
2022-11-09T00:32:26.637Z,100017.60
2022-11-09T00:34:58.470Z,100016.28
2022-11-09T00:37:30.293Z,100015.11
2022-11-09T00:40:03.367Z,100015.00
2022-11-09T00:42:34.061Z,100017.50
2022-11-09T00:45:05.880Z,100018.33
2022-11-09T00:47:35.832Z,100015.95
2022-11-09T00:50:08.410Z,100023.41
2022-11-09T00:52:39.941Z,100025.11
2022-11-09T00:55:11.610Z,100027.03
2022-11-09T00:57:42.278Z,100031.02
2022-11-09T01:00:28.038Z,100026.55
2022-11-09T01:02:58.634Z,100031.52
2022-11-09T01:05:29.263Z,100028.21
2022-11-09T01:07:59.981Z,100024.09
2022-11-09T01:10:32.145Z,100022.05
2022-11-09T01:13:02.966Z,100017.32
2022-11-09T01:15:33.696Z,100023.60
2022-11-09T01:18:07.246Z,100026.45
2022-11-09T01:20:42.254Z,100023.77
2022-11-09T01:23:14.881Z,100027.02
2022-11-09T01:25:46.170Z,100025.52
2022-11-09T01:28:16.842Z,100029.52
2022-11-09T01:30:47.572Z,100024.95
2022-11-09T01:33:18.541Z,100027.53
2022-11-09T01:35:49.359Z,100025.62
2022-11-09T01:38:19.939Z,100025.88
2022-11-09T01:40:52.073Z,100023.67
2022-11-09T01:43:24.560Z,100025.95
2022-11-09T01:46:00.795Z,100032.77
2022-11-09T01:48:38.711Z,100029.23
2022-11-09T01:51:15.554Z,100028.52
2022-11-09T01:53:49.686Z,100025.55
2022-11-09T01:56:21.625Z,100023.24
2022-11-09T01:58:59.190Z,100025.16
2022-11-09T02:01:34.340Z,100031.55
2022-11-09T02:04:11.543Z,100033.14
2022-11-09T02:06:42.495Z,100023.39
2022-11-09T02:09:17.838Z,100025.76
2022-11-09T02:11:50.113Z,100022.11
2022-11-09T02:14:22.378Z,100011.31
2022-11-09T02:16:53.353Z,100026.92
2022-11-09T02:19:24.090Z,100024.81
2022-11-09T02:21:54.874Z,100020.52
2022-11-09T02:24:28.870Z,100019.09
2022-11-09T02:26:59.794Z,100017.27
2022-11-09T02:29:36.407Z,100019.08
2022-11-09T02:32:11.307Z,100018.30
2022-11-09T02:34:42.180Z,100011.55
2022-11-09T02:37:13.365Z,100007.09
2022-11-09T02:39:44.190Z,100003.23
2022-11-09T02:42:21.616Z,100006.24
2022-11-09T02:44:56.699Z,100002.89
2022-11-09T02:47:27.896Z,100013.35
2022-11-09T02:49:58.615Z,100011.20
2022-11-09T02:52:30.160Z,100008.21
2022-11-09T02:55:00.851Z,100003.92
2022-11-09T02:57:31.583Z,100000.52
2022-11-09T03:00:03.824Z,99996.39
2022-11-09T03:02:35.070Z,100000.17
2022-11-09T03:05:06.318Z,99999.52
2022-11-09T03:07:37.749Z,99996.38
2022-11-09T03:10:10.572Z,99994.17
2022-11-09T03:12:43.405Z,99996.92
2022-11-09T03:15:14.877Z,99998.89
2022-11-09T03:17:49.169Z,100011.39
2022-11-09T03:20:22.639Z,100012.92
2022-11-09T03:22:53.296Z,100013.52
2022-11-09T03:25:24.412Z,100012.08
2022-11-09T03:28:00.234Z,100004.98
2022-11-09T03:30:31.459Z,100007.80
2022-11-09T03:33:04.207Z,100014.55
2022-11-09T03:35:33.869Z,100007.40
2022-11-09T03:38:04.967Z,100006.67
2022-11-09T03:40:36.066Z,100001.23
2022-11-09T03:43:07.197Z,99992.46
2022-11-09T03:45:38.138Z,99999.85
2022-11-09T03:48:09.469Z,99996.89
2022-11-09T03:50:41.226Z,99992.41
2022-11-09T03:53:14.557Z,100001.48
2022-11-09T03:55:45.445Z,100012.69
2022-11-09T03:58:16.152Z,100012.04
2022-11-09T04:00:46.792Z,100016.27
2022-11-09T04:03:17.862Z,100017.52
2022-11-09T04:05:48.677Z,100014.48
2022-11-09T04:08:19.403Z,100012.13
2022-11-09T04:10:50.169Z,100005.42
2022-11-09T04:13:22.620Z,100005.40
2022-11-09T04:16:48.577Z,100005.67
2022-11-09T04:19:19.462Z,100010.45
2022-11-09T04:21:50.104Z,100005.92
2022-11-09T04:24:20.861Z,100010.33
2022-11-09T04:26:51.675Z,100005.82
2022-11-09T04:29:22.387Z,100000.14
2022-11-09T04:31:53.360Z,100000.30
2022-11-09T04:34:24.075Z,100002.73
2022-11-09T04:36:54.820Z,100008.28
2022-11-09T04:39:25.453Z,100010.63
2022-11-09T04:41:56.106Z,100015.08
2022-11-09T04:44:29.204Z,100016.22
2022-11-09T04:46:59.912Z,100010.35
2022-11-09T04:49:30.632Z,100010.69
2022-11-09T04:52:01.379Z,100014.52
2022-11-09T04:54:32.021Z,100014.53
2022-11-09T04:57:02.732Z,100009.00
2022-11-09T04:59:33.325Z,100004.98
2022-11-09T05:02:04.111Z,100005.46
2022-11-09T05:04:34.799Z,100009.21
2022-11-09T05:07:05.535Z,100012.45
2022-11-09T05:09:36.327Z,100007.17
2022-11-09T05:12:07.877Z,100011.30
2022-11-09T05:14:40.573Z,100009.50
2022-11-09T05:17:11.372Z,100008.40
2022-11-09T05:19:42.006Z,100011.86
2022-11-09T05:22:30.325Z,100018.67
2022-11-09T05:25:01.019Z,100031.73
2022-11-09T05:27:31.583Z,100033.98
2022-11-09T05:30:02.798Z,100036.70
2022-11-09T05:32:33.499Z,100034.71
2022-11-09T05:35:04.203Z,100041.48
2022-11-09T05:37:34.946Z,100045.49
2022-11-09T05:40:06.201Z,100042.52
2022-11-09T05:42:39.199Z,100038.98
2022-11-09T05:45:40.819Z,100037.30
2022-11-09T05:48:06.250Z,100041.36
2022-11-09T05:50:37.135Z,100041.75
2022-11-09T05:53:18.601Z,100043.08
2022-11-09T05:55:49.691Z,100043.97
2022-11-09T05:58:20.502Z,100040.19
2022-11-09T06:00:51.265Z,100044.59
2022-11-09T06:03:22.177Z,100048.15
2022-11-09T06:05:53.220Z,100052.84
2022-11-09T06:08:23.901Z,100051.35
2022-11-09T06:11:00.751Z,100054.88
2022-11-09T06:13:32.046Z,100051.64
2022-11-09T06:16:06.574Z,100046.90
2022-11-09T06:18:38.296Z,100039.75
2022-11-09T06:21:09.224Z,100045.58
2022-11-09T06:23:40.051Z,100052.95
2022-11-09T06:26:14.726Z,100052.25
2022-11-09T06:28:45.657Z,100056.42
2022-11-09T06:31:21.851Z,100064.45
2022-11-09T06:33:54.106Z,100066.11
2022-11-09T06:36:27.939Z,100062.42
2022-11-09T06:38:58.706Z,100065.23
2022-11-09T06:41:29.310Z,100061.44
2022-11-09T06:44:00.021Z,100062.64
2022-11-09T06:46:32.777Z,100060.23
2022-11-09T06:49:03.558Z,100061.12
2022-11-09T06:51:34.418Z,100060.41
2022-11-09T06:54:05.130Z,100063.05
2022-11-09T06:56:35.892Z,100065.16
2022-11-09T06:59:06.714Z,100072.96
2022-11-09T07:01:37.850Z,100076.27
2022-11-09T07:04:08.679Z,100078.15
2022-11-09T07:06:42.816Z,100078.82
2022-11-09T07:09:13.869Z,100076.13
2022-11-09T07:11:49.471Z,100080.20
2022-11-09T07:14:20.398Z,100078.88
2022-11-09T07:16:51.125Z,100088.50
2022-11-09T07:19:22.523Z,100086.73
2022-11-09T07:21:53.266Z,100087.52
2022-11-09T07:24:24.573Z,100086.32
2022-11-09T07:26:55.303Z,100082.80
2022-11-09T07:29:26.061Z,100087.91
2022-11-09T07:31:57.034Z,100098.86
2022-11-09T07:34:27.683Z,100104.94
2022-11-09T07:36:58.636Z,100107.41
2022-11-09T07:39:29.315Z,100109.52
2022-11-09T07:42:00.041Z,100113.31
2022-11-09T07:44:31.191Z,100116.85
2022-11-09T07:47:03.668Z,100120.60
2022-11-09T07:49:35.227Z,100115.86
2022-11-09T07:52:06.673Z,100112.60
2022-11-09T07:54:38.000Z,100115.91
2022-11-09T07:57:08.608Z,100111.30
2022-11-09T07:59:40.000Z,100116.23
2022-11-09T08:02:12.107Z,100121.80
2022-11-09T08:04:43.676Z,100116.34
2022-11-09T08:07:14.357Z,100119.25
2022-11-09T08:09:45.270Z,100123.05
2022-11-09T08:12:15.974Z,100131.96
2022-11-09T08:14:46.642Z,100132.84
2022-11-09T08:17:17.572Z,100134.39
2022-11-09T08:19:48.216Z,100133.89
2022-11-09T08:22:18.850Z,100131.73
2022-11-09T08:24:49.483Z,100131.63
2022-11-09T08:27:20.250Z,100130.15
2022-11-09T08:29:50.875Z,100117.75
2022-11-09T08:32:21.701Z,100132.22
2022-11-09T08:34:52.489Z,100123.67
2022-11-09T08:37:23.270Z,100123.82
2022-11-09T08:39:54.073Z,100120.92
2022-11-09T08:42:24.640Z,100120.92
2022-11-09T08:44:55.370Z,100125.38
2022-11-09T08:47:26.024Z,100123.66
2022-11-09T08:49:57.125Z,100129.85
2022-11-09T08:52:28.059Z,100122.59
2022-11-09T08:54:58.935Z,100124.73
2022-11-09T08:57:29.850Z,100124.84
2022-11-09T09:00:00.598Z,100125.14
2022-11-09T09:02:31.430Z,100126.13
2022-11-09T09:05:02.221Z,100129.06
2022-11-09T09:07:32.989Z,100133.03
2022-11-09T09:10:03.713Z,100126.07
2022-11-09T09:12:34.893Z,100129.70
2022-11-09T09:15:07.145Z,100133.29
2022-11-09T09:17:37.939Z,100127.63
2022-11-09T09:20:10.194Z,100125.44
2022-11-09T09:22:41.033Z,100131.33
2022-11-09T09:25:12.762Z,100132.03
2022-11-09T09:27:44.801Z,100132.42
2022-11-09T09:30:16.380Z,100131.39
2022-11-09T09:32:47.146Z,100134.14
2022-11-09T09:35:18.230Z,100132.77
2022-11-09T09:37:48.951Z,100133.31
2022-11-09T09:40:29.319Z,100132.98
2022-11-09T09:43:00.527Z,100134.87
2022-11-09T09:45:34.428Z,100134.31
2022-11-09T09:48:17.801Z,100128.65
2022-11-09T09:50:53.323Z,100121.32
2022-11-09T09:53:32.373Z,100122.92
2022-11-09T09:56:10.668Z,100120.02
2022-11-09T09:58:46.093Z,100115.34
2022-11-09T10:01:20.284Z,100124.83
2022-11-09T10:03:51.896Z,100123.62
2022-11-09T10:06:44.051Z,100114.81
2022-11-09T10:09:28.021Z,100096.60
2022-11-09T10:12:08.019Z,100092.27
2022-11-09T10:15:17.273Z,100098.64
2022-11-09T10:18:22.705Z,100099.17
2022-11-09T10:21:07.168Z,100090.25
2022-11-09T10:23:48.422Z,100093.56
2022-11-09T10:26:24.116Z,100091.65
2022-11-09T10:29:15.701Z,100088.66
2022-11-09T10:31:50.165Z,100079.58
2022-11-09T10:34:24.742Z,100077.66
2022-11-09T10:37:03.000Z,100078.21
2022-11-09T10:39:43.594Z,100080.64
2022-11-09T10:42:33.297Z,100084.93
2022-11-09T10:45:30.336Z,100083.73
2022-11-09T10:48:34.135Z,100078.10
2022-11-09T10:51:40.527Z,100067.86
2022-11-09T10:54:33.772Z,100066.98
2022-11-09T10:57:24.518Z,100066.88
2022-11-09T11:00:20.566Z,100067.65
2022-11-09T11:03:17.941Z,100063.21
2022-11-09T11:06:16.209Z,100051.75
2022-11-09T11:09:21.514Z,100050.81
2022-11-09T11:12:17.636Z,100047.95
2022-11-09T11:15:23.794Z,100053.85
2022-11-09T11:18:23.561Z,100062.77
2022-11-09T11:21:19.121Z,100062.48
2022-11-09T11:24:17.995Z,100060.41
2022-11-09T11:27:11.696Z,100055.44
2022-11-09T11:30:08.201Z,100059.80
2022-11-09T11:32:58.390Z,100055.89
2022-11-09T11:35:56.736Z,100053.45
2022-11-09T11:38:56.424Z,100054.73
2022-11-09T11:42:05.778Z,100056.77
2022-11-09T11:45:34.032Z,100051.02
2022-11-09T11:48:35.851Z,100041.64
2022-11-09T11:51:33.986Z,100035.77
2022-11-09T11:54:32.770Z,100038.69
2022-11-09T11:57:32.727Z,100040.73
2022-11-09T12:00:23.216Z,100034.37
2022-11-09T12:03:40.210Z,100038.15
2022-11-09T12:06:45.374Z,100043.54
2022-11-09T12:09:47.455Z,100053.95
2022-11-09T12:12:46.742Z,100046.27
2022-11-09T12:15:53.173Z,100046.38
2022-11-09T12:18:58.459Z,100045.47
2022-11-09T12:21:54.852Z,100041.34
2022-11-09T12:24:56.219Z,100048.92
2022-11-09T12:28:00.147Z,100042.36
2022-11-09T12:31:06.988Z,100034.64
2022-11-09T12:34:01.619Z,100034.50
2022-11-09T12:36:57.286Z,100029.70
2022-11-09T12:39:51.968Z,100029.12
2022-11-09T12:42:46.764Z,100027.08
2022-11-09T12:45:39.578Z,100024.88
2022-11-09T12:48:31.328Z,100030.84
2022-11-09T12:51:21.804Z,100035.86
2022-11-09T12:54:12.384Z,100044.20
2022-11-09T12:57:05.756Z,100045.69
2022-11-09T12:59:56.320Z,100051.25
2022-11-09T13:02:56.011Z,100062.43
2022-11-09T13:05:48.571Z,100060.51
2022-11-09T13:08:39.760Z,100059.84
2022-11-09T13:11:40.976Z,100050.58
2022-11-09T13:14:36.846Z,100043.92
2022-11-09T13:17:57.187Z,100047.01
2022-11-09T13:20:56.491Z,100043.46
2022-11-09T13:24:00.477Z,100048.98
2022-11-09T13:27:00.745Z,100036.02
2022-11-09T13:29:56.636Z,100027.77
2022-11-09T13:33:18.247Z,100030.52
2022-11-09T13:36:24.384Z,100041.65
2022-11-09T13:39:34.018Z,100036.81
2022-11-09T13:42:34.719Z,100034.43
2022-11-09T13:45:34.625Z,100039.17
2022-11-09T13:48:41.192Z,100045.56
2022-11-09T13:51:46.150Z,100042.97
2022-11-09T13:54:37.160Z,100041.33
2022-11-09T13:57:25.832Z,100046.95
2022-11-09T14:00:23.414Z,100056.75
2022-11-09T14:03:23.299Z,100055.71
2022-11-09T14:06:14.855Z,100063.98
2022-11-09T14:09:04.544Z,100059.19
2022-11-09T14:12:17.863Z,100057.00
2022-11-09T14:15:20.790Z,100060.40
2022-11-09T14:18:23.493Z,100066.63
2022-11-09T14:21:27.007Z,100058.25
2022-11-09T14:24:22.347Z,100061.61
2022-11-09T14:27:21.350Z,100066.25
2022-11-09T14:30:21.747Z,100075.50
2022-11-09T14:33:26.901Z,100075.38
2022-11-09T14:36:16.796Z,100080.52
2022-11-09T14:39:15.891Z,100076.84
2022-11-09T14:42:07.062Z,100077.44
2022-11-09T14:44:56.645Z,100076.02
2022-11-09T14:47:49.413Z,100081.06
2022-11-09T14:50:40.197Z,100080.89
2022-11-09T14:53:32.236Z,100088.52
2022-11-09T14:56:24.070Z,100091.27
2022-11-09T14:59:17.136Z,100096.65
2022-11-09T15:02:09.563Z,100102.32
2022-11-09T15:04:59.939Z,100112.11
2022-11-09T15:07:49.332Z,100107.15
2022-11-09T15:10:39.554Z,100104.87
2022-11-09T15:13:35.932Z,100105.73
2022-11-09T15:16:28.290Z,100100.64
2022-11-09T15:19:29.902Z,100098.65
2022-11-09T15:22:43.694Z,100104.04
2022-11-09T15:25:36.821Z,100110.73
2022-11-09T15:28:29.187Z,100109.29
2022-11-09T15:31:22.818Z,100115.51
2022-11-09T15:34:24.556Z,100115.75
2022-11-09T15:37:28.236Z,100119.45
2022-11-09T15:40:19.627Z,100122.39
2022-11-09T15:43:09.271Z,100129.73
2022-11-09T15:46:00.950Z,100133.08
2022-11-09T15:48:51.682Z,100136.74
2022-11-09T15:51:41.552Z,100141.95
2022-11-09T15:54:32.403Z,100152.23
2022-11-09T15:57:22.167Z,100155.25
2022-11-09T16:00:20.830Z,100153.88
2022-11-09T16:03:11.574Z,100158.42
2022-11-09T16:06:01.118Z,100160.44
2022-11-09T16:08:53.416Z,100159.44
2022-11-09T16:11:43.053Z,100166.38
2022-11-09T16:14:35.084Z,100167.38
2022-11-09T16:17:24.781Z,100171.50
2022-11-09T16:20:14.960Z,100169.04
2022-11-09T16:23:04.275Z,100172.63
2022-11-09T16:25:53.771Z,100178.40
2022-11-09T16:28:44.326Z,100180.11
2022-11-09T16:31:50.790Z,100187.53
2022-11-09T16:34:41.603Z,100185.81
2022-11-09T16:37:33.565Z,100184.88
2022-11-09T16:40:24.716Z,100179.36
2022-11-09T16:43:14.485Z,100175.51
2022-11-09T16:46:04.108Z,100178.42
2022-11-09T16:48:55.823Z,100185.95
2022-11-09T16:51:45.184Z,100185.19
2022-11-09T16:54:34.547Z,100187.45
2022-11-09T16:57:23.887Z,100188.48
2022-11-09T17:00:15.767Z,100193.22
2022-11-09T17:03:05.878Z,100191.30
2022-11-09T17:06:00.467Z,100196.77
2022-11-09T17:08:50.773Z,100194.63
2022-11-09T17:11:40.636Z,100196.98
2022-11-09T17:14:32.476Z,100196.77
2022-11-09T17:17:22.930Z,100190.13
2022-11-09T17:20:13.665Z,100197.39
2022-11-09T17:23:03.381Z,100199.36
2022-11-09T17:26:00.509Z,100190.75
2022-11-09T17:28:50.922Z,100184.95
2022-11-09T17:31:40.188Z,100190.27
2022-11-09T17:34:29.680Z,100195.26
2022-11-09T17:37:19.312Z,100201.03
2022-11-09T17:40:10.820Z,100211.48
2022-11-09T17:43:00.716Z,100208.14
2022-11-09T17:45:50.412Z,100202.20
2022-11-09T17:48:41.473Z,100205.11
2022-11-09T17:51:31.335Z,100206.50
2022-11-09T17:54:20.600Z,100205.36
2022-11-09T17:57:10.409Z,100209.22
2022-11-09T18:00:00.287Z,100208.05
2022-11-09T18:02:49.604Z,100215.81
2022-11-09T18:05:42.078Z,100219.72
2022-11-09T18:08:31.590Z,100219.46
2022-11-09T18:11:20.995Z,100220.58
2022-11-09T18:14:12.388Z,100225.88
2022-11-09T18:17:01.923Z,100230.98
2022-11-09T18:19:51.244Z,100230.05
2022-11-09T18:22:41.058Z,100236.77
2022-11-09T18:25:31.223Z,100228.91
2022-11-09T18:28:20.868Z,100221.14
2022-11-09T18:31:12.195Z,100228.49
2022-11-09T18:34:01.518Z,100225.34
2022-11-09T18:36:51.410Z,100220.41
2022-11-09T18:39:40.768Z,100220.98
2022-11-09T18:42:30.575Z,100216.86
2022-11-09T18:45:22.393Z,100214.77
2022-11-09T18:48:12.169Z,100225.67
2022-11-09T18:51:03.313Z,100229.80
2022-11-09T18:53:51.579Z,100230.04
2022-11-09T18:56:40.931Z,100230.11
2022-11-09T18:59:30.209Z,100228.63
2022-11-09T19:02:19.973Z,100227.80
2022-11-09T19:05:11.195Z,100230.19
2022-11-09T19:08:00.770Z,100226.19
2022-11-09T19:10:50.692Z,100233.02
2022-11-09T19:13:40.489Z,100230.50
2022-11-09T19:16:31.842Z,100234.95
2022-11-09T19:19:21.952Z,100233.65
2022-11-09T19:22:18.178Z,100239.99
2022-11-09T19:25:10.057Z,100244.84
2022-11-09T19:27:59.460Z,100243.71
2022-11-09T19:30:49.201Z,100258.17
2022-11-09T19:33:38.357Z,100259.45
2022-11-09T19:36:31.097Z,100267.56
2022-11-09T19:39:21.176Z,100267.23
2022-11-09T19:42:10.512Z,100267.11
2022-11-09T19:45:00.346Z,100267.30
2022-11-09T19:47:52.737Z,100263.56
2022-11-09T19:50:47.213Z,100268.73
2022-11-09T19:53:41.995Z,100262.96
2022-11-09T19:56:33.524Z,100265.10
2022-11-09T19:59:23.689Z,100266.82
2022-11-09T20:02:13.098Z,100265.27
2022-11-09T20:05:02.464Z,100266.03
2022-11-09T20:07:51.932Z,100272.20
2022-11-09T20:10:41.351Z,100279.75
2022-11-09T20:13:30.966Z,100276.28
2022-11-09T20:16:20.290Z,100272.54
2022-11-09T20:19:14.256Z,100276.66
2022-11-09T20:22:04.139Z,100275.56
2022-11-09T20:24:53.516Z,100273.80
2022-11-09T20:27:42.864Z,100274.84
2022-11-09T20:30:32.285Z,100281.67
2022-11-09T20:33:21.876Z,100279.26
2022-11-09T20:36:12.357Z,100284.09
2022-11-09T20:39:01.745Z,100289.81
2022-11-09T20:41:51.212Z,100288.06
2022-11-09T20:44:41.381Z,100292.52
2022-11-09T20:48:02.101Z,100287.27
2022-11-09T20:50:41.954Z,100293.02
2022-11-09T20:53:31.214Z,100299.86
2022-11-09T20:56:21.670Z,100298.65
2022-11-09T20:59:11.366Z,100305.65
2022-11-09T21:02:00.911Z,100295.94
2022-11-09T21:04:50.308Z,100304.90
2022-11-09T21:07:39.590Z,100303.86
2022-11-09T21:10:28.938Z,100304.74
2022-11-09T21:13:18.414Z,100297.61
2022-11-09T21:16:09.737Z,100315.04
2022-11-09T21:18:59.186Z,100317.84
2022-11-09T21:21:50.241Z,100324.35
2022-11-09T21:24:56.838Z,100328.19
2022-11-09T21:28:03.927Z,100332.39
2022-11-09T21:30:53.554Z,100326.61
2022-11-09T21:33:43.176Z,100326.39
2022-11-09T21:36:32.615Z,100327.31
2022-11-09T21:39:21.793Z,100324.21
2022-11-09T21:42:12.494Z,100322.33
2022-11-09T21:45:00.159Z,100329.39
2022-11-09T21:47:49.289Z,100329.52
2022-11-09T21:50:38.420Z,100325.21
2022-11-09T21:53:28.050Z,100324.97
2022-11-09T21:56:17.709Z,100335.09
2022-11-09T21:59:08.570Z,100338.50
2022-11-09T22:01:58.141Z,100348.84
2022-11-09T22:04:47.400Z,100349.77
2022-11-09T22:07:37.160Z,100354.50
2022-11-09T22:10:26.935Z,100357.73
2022-11-09T22:13:40.312Z,100357.94
2022-11-09T22:16:33.527Z,100366.51
2022-11-09T22:19:40.425Z,100367.28
2022-11-09T22:22:33.982Z,100371.46
2022-11-09T22:25:24.149Z,100372.67
2022-11-09T22:28:13.864Z,100374.42
2022-11-09T22:31:05.271Z,100371.64
2022-11-09T22:33:55.610Z,100370.15
2022-11-09T22:36:44.777Z,100365.26
2022-11-09T22:39:34.381Z,100351.05
2022-11-09T22:42:23.920Z,100351.14
2022-11-09T22:45:13.688Z,100358.52
2022-11-09T22:48:03.056Z,100362.85
2022-11-09T22:50:52.771Z,100366.98
2022-11-09T22:53:42.556Z,100366.43
2022-11-09T22:56:33.329Z,100367.13
2022-11-09T22:59:22.615Z,100367.52
2022-11-09T23:02:12.190Z,100370.68
2022-11-09T23:05:01.654Z,100369.85
2022-11-09T23:07:51.041Z,100372.89
2022-11-09T23:10:41.021Z,100377.48
2022-11-09T23:13:31.418Z,100380.89
2022-11-09T23:16:21.980Z,100383.02
2022-11-09T23:19:11.360Z,100386.23
2022-11-09T23:22:00.546Z,100395.03
2022-11-09T23:25:08.014Z,100396.86
2022-11-09T23:27:58.040Z,100402.23
2022-11-09T23:30:47.622Z,100405.53
2022-11-09T23:33:37.767Z,100408.56
2022-11-09T23:36:28.301Z,100409.42
2022-11-09T23:39:17.793Z,100410.83
2022-11-09T23:42:07.528Z,100418.05
2022-11-09T23:44:57.035Z,100419.99
2022-11-09T23:47:46.614Z,100421.20
2022-11-09T23:50:36.333Z,100426.46
2022-11-09T23:53:25.777Z,100432.21
2022-11-09T23:56:15.247Z,100433.83
2022-11-09T23:59:06.391Z,100436.02
